createdAt,value
2023-02-09T05:03:42.657Z,103029.63
2023-02-09T05:06:45.340Z,103029.63
2023-02-09T05:09:47.419Z,103030.09
2023-02-09T05:12:49.894Z,103024.41
2023-02-09T05:15:52.847Z,103029.53
2023-02-09T05:18:55.448Z,103025.16
2023-02-09T05:21:57.626Z,103027.47
2023-02-09T05:25:00.196Z,103030.00
2023-02-09T05:28:02.483Z,103038.97
2023-02-09T05:31:05.141Z,103040.37
2023-02-09T05:34:07.239Z,103029.44
2023-02-09T05:37:09.610Z,103035.59
2023-02-09T05:40:13.416Z,103041.47
2023-02-09T05:43:16.292Z,103032.81
2023-02-09T05:46:18.515Z,103041.16
2023-02-09T05:49:20.945Z,103040.88
2023-02-09T05:52:23.212Z,103037.81
2023-02-09T05:55:25.887Z,103042.44
2023-02-09T05:58:28.198Z,103048.66
2023-02-09T06:01:30.601Z,103043.66
2023-02-09T06:04:33.607Z,103045.09
2023-02-09T06:07:35.945Z,103042.50
2023-02-09T06:10:38.467Z,103041.97
2023-02-09T06:13:40.553Z,103047.09
2023-02-09T06:16:43.846Z,103040.91
2023-02-09T06:19:45.927Z,103042.88
2023-02-09T06:22:48.323Z,103039.53
2023-02-09T06:25:53.075Z,103040.66
2023-02-09T06:28:55.476Z,103050.63
2023-02-09T06:31:57.706Z,103038.56
2023-02-09T06:35:00.214Z,103039.16
2023-02-09T06:38:02.351Z,103040.81
2023-02-09T06:41:05.492Z,103032.91
2023-02-09T06:44:07.650Z,103033.47
2023-02-09T06:47:10.190Z,103030.84
2023-02-09T06:50:17.142Z,103036.37
2023-02-09T06:53:19.957Z,103031.00
2023-02-09T06:56:22.156Z,103039.72
2023-02-09T06:59:24.660Z,103031.00
2023-02-09T07:02:26.972Z,103037.91
2023-02-09T07:05:29.543Z,103040.00
2023-02-09T07:08:32.660Z,103030.56
2023-02-09T07:11:35.756Z,103032.09
2023-02-09T07:14:37.872Z,103039.13
2023-02-09T07:17:40.848Z,103041.38
2023-02-09T07:20:43.037Z,103039.44
2023-02-09T07:23:46.597Z,103034.72
2023-02-09T07:26:48.791Z,103035.22
2023-02-09T07:29:51.204Z,103034.97
2023-02-09T07:32:53.334Z,103033.78
2023-02-09T07:35:55.761Z,103032.66
2023-02-09T07:38:59.471Z,103034.78
2023-02-09T07:42:02.272Z,103037.47
2023-02-09T07:45:10.091Z,103033.50
2023-02-09T07:48:12.698Z,103031.94
2023-02-09T07:51:25.440Z,103043.56
2023-02-09T07:54:27.921Z,103038.69
2023-02-09T07:57:30.117Z,103029.31
2023-02-09T08:00:32.540Z,103034.34
2023-02-09T08:03:38.971Z,103026.72
2023-02-09T08:06:45.116Z,103031.19
2023-02-09T08:09:47.532Z,103035.16
2023-02-09T08:13:02.878Z,103030.69
2023-02-09T08:16:09.917Z,103027.22
2023-02-09T08:19:15.329Z,103027.22
2023-02-09T08:22:17.817Z,103025.97
2023-02-09T08:25:22.419Z,103013.88
2023-02-09T08:28:38.258Z,103018.22
2023-02-09T08:31:45.166Z,103013.97
2023-02-09T08:34:47.672Z,103020.81
2023-02-09T08:37:49.840Z,103021.12
2023-02-09T08:40:52.206Z,103020.78
2023-02-09T08:43:54.268Z,103013.19
2023-02-09T08:46:56.777Z,103020.13
2023-02-09T08:49:59.372Z,103015.31
2023-02-09T08:53:02.964Z,103015.31
2023-02-09T08:56:05.709Z,103014.84
2023-02-09T08:59:08.287Z,103015.50
2023-02-09T09:02:10.520Z,103007.69
2023-02-09T09:05:13.938Z,103013.03
2023-02-09T09:08:16.069Z,103009.03
2023-02-09T09:11:18.905Z,103007.38
2023-02-09T09:14:21.026Z,103015.75
2023-02-09T09:17:23.462Z,103017.13
2023-02-09T09:20:25.667Z,103015.66
2023-02-09T09:23:28.142Z,103025.59
2023-02-09T09:26:30.335Z,103020.94
2023-02-09T09:29:34.321Z,103023.78
2023-02-09T09:32:36.617Z,103021.78
2023-02-09T09:35:39.204Z,103019.31
2023-02-09T09:38:42.442Z,103022.44
2023-02-09T09:41:48.336Z,103022.78
2023-02-09T09:44:50.794Z,103023.94
2023-02-09T09:47:56.296Z,103027.91
2023-02-09T09:51:11.861Z,103024.41
2023-02-09T09:54:19.210Z,103026.63
2023-02-09T09:57:27.390Z,103023.78
2023-02-09T10:00:42.245Z,103031.53
2023-02-09T10:03:46.724Z,103021.72
2023-02-09T10:07:02.463Z,103016.78
2023-02-09T10:10:13.776Z,103023.16
2023-02-09T10:13:25.380Z,103021.75
2023-02-09T10:16:34.250Z,103021.28
2023-02-09T10:19:36.611Z,103012.28
2023-02-09T10:22:39.056Z,103006.25
2023-02-09T10:26:04.434Z,103003.25
2023-02-09T10:29:12.660Z,102997.31
2023-02-09T10:32:35.920Z,102992.19
2023-02-09T10:35:46.063Z,102988.72
2023-02-09T10:38:48.327Z,102992.09
2023-02-09T10:41:53.892Z,102987.31
2023-02-09T10:44:59.122Z,102983.03
2023-02-09T10:48:16.363Z,102977.16
2023-02-09T10:51:29.506Z,102969.31
2023-02-09T10:54:31.989Z,102963.88
2023-02-09T10:57:37.091Z,102961.22
2023-02-09T11:00:54.062Z,102954.84
2023-02-09T11:04:16.717Z,102950.66
2023-02-09T11:07:23.652Z,102950.19
2023-02-09T11:10:29.276Z,102936.22
2023-02-09T11:13:33.121Z,102935.16
2023-02-09T11:16:57.726Z,102941.87
2023-02-09T11:20:26.105Z,102931.84
2023-02-09T11:23:40.370Z,102920.88
2023-02-09T11:26:55.199Z,102919.47
2023-02-09T11:30:05.789Z,102910.75
2023-02-09T11:33:27.709Z,102906.06
2023-02-09T11:36:38.852Z,102901.34
2023-02-09T11:39:51.236Z,102901.44
2023-02-09T11:43:06.535Z,102895.50
2023-02-09T11:46:18.534Z,102896.34
2023-02-09T11:49:27.021Z,102882.81
2023-02-09T11:52:40.376Z,102882.97
2023-02-09T11:56:00.896Z,102880.47
2023-02-09T11:59:03.614Z,102868.97
2023-02-09T12:02:38.631Z,102869.44
2023-02-09T12:05:44.390Z,102872.91
2023-02-09T12:09:03.152Z,102875.69
2023-02-09T12:12:30.285Z,102869.09
2023-02-09T12:15:44.283Z,102867.03
2023-02-09T12:18:46.965Z,102862.56
2023-02-09T12:21:49.048Z,102864.69
2023-02-09T12:25:29.152Z,102854.94
2023-02-09T12:28:31.449Z,102857.53
2023-02-09T12:32:06.197Z,102857.22
2023-02-09T12:35:38.982Z,102842.44
2023-02-09T12:39:28.386Z,102848.72
2023-02-09T12:42:38.717Z,102839.53
2023-02-09T12:45:45.045Z,102845.03
2023-02-09T12:49:11.977Z,102839.19
2023-02-09T12:52:16.761Z,102835.06
2023-02-09T12:55:22.963Z,102833.59
2023-02-09T12:58:44.570Z,102835.78
2023-02-09T13:02:06.977Z,102827.19
2023-02-09T13:05:16.470Z,102818.06
2023-02-09T13:08:29.614Z,102817.63
2023-02-09T13:11:51.675Z,102809.47
2023-02-09T13:14:54.127Z,102801.53
2023-02-09T13:18:14.103Z,102808.84
2023-02-09T13:21:41.165Z,102793.09
2023-02-09T13:25:17.974Z,102794.53
2023-02-09T13:28:26.425Z,102805.34
2023-02-09T13:31:49.380Z,102797.47
2023-02-09T13:35:16.544Z,102800.94
2023-02-09T13:38:21.446Z,102791.25
2023-02-09T13:41:35.175Z,102792.25
2023-02-09T13:44:45.446Z,102794.50
2023-02-09T13:47:47.935Z,102788.06
2023-02-09T13:50:52.274Z,102790.72
2023-02-09T13:54:02.255Z,102788.72
2023-02-09T13:57:10.470Z,102781.41
2023-02-09T14:00:24.821Z,102781.31
2023-02-09T14:03:31.046Z,102786.19
2023-02-09T14:06:51.974Z,102771.28
2023-02-09T14:10:10.087Z,102779.16
2023-02-09T14:13:18.696Z,102774.03
2023-02-09T14:16:24.127Z,102772.34
2023-02-09T14:19:35.544Z,102771.66
2023-02-09T14:22:39.561Z,102770.78
2023-02-09T14:25:42.207Z,102759.16
2023-02-09T14:28:50.351Z,102764.56
2023-02-09T14:32:01.776Z,102768.69
2023-02-09T14:35:16.226Z,102765.16
2023-02-09T14:38:34.122Z,102758.19
2023-02-09T14:41:43.274Z,102756.88
2023-02-09T14:44:58.095Z,102761.44
2023-02-09T14:48:00.236Z,102762.34
2023-02-09T14:51:12.989Z,102768.56
2023-02-09T14:54:24.087Z,102766.72
2023-02-09T14:57:29.733Z,102776.25
2023-02-09T15:00:32.138Z,102765.25
2023-02-09T15:03:34.502Z,102762.47
2023-02-09T15:06:37.444Z,102766.50
2023-02-09T15:09:40.323Z,102773.09
2023-02-09T15:12:42.429Z,102767.50
2023-02-09T15:15:46.311Z,102766.88
2023-02-09T15:18:48.936Z,102764.38
2023-02-09T15:22:06.291Z,102763.47
2023-02-09T15:25:12.491Z,102758.59
2023-02-09T15:28:27.772Z,102758.78
2023-02-09T15:31:30.188Z,102764.12
2023-02-09T15:34:32.578Z,102761.78
2023-02-09T15:37:37.000Z,102763.56
2023-02-09T15:41:02.461Z,102756.28
2023-02-09T15:44:34.880Z,102756.16
2023-02-09T15:47:49.322Z,102760.94
2023-02-09T15:50:51.866Z,102765.97
2023-02-09T15:53:56.459Z,102762.28
2023-02-09T15:56:59.934Z,102766.16
2023-02-09T16:00:02.627Z,102766.06
2023-02-09T16:03:18.944Z,102772.69
2023-02-09T16:06:26.756Z,102771.03
2023-02-09T16:09:29.477Z,102773.22
2023-02-09T16:12:31.851Z,102780.19
2023-02-09T16:15:33.995Z,102768.94
2023-02-09T16:18:36.368Z,102778.19
2023-02-09T16:21:40.991Z,102781.44
2023-02-09T16:24:46.643Z,102773.56
2023-02-09T16:27:50.584Z,102776.03
2023-02-09T16:30:55.193Z,102768.44
2023-02-09T16:33:57.512Z,102768.66
2023-02-09T16:37:00.076Z,102764.00
2023-02-09T16:40:02.324Z,102767.81
2023-02-09T16:43:05.783Z,102765.78
2023-02-09T16:46:12.080Z,102768.22
2023-02-09T16:49:26.907Z,102774.34
